Latest Coastal Weather Observations for Smithton

IDT60701

Issued at 2:02 pm EST Monday 5 June 2023 (issued every 10 minutes, with the page automatically refreshed every 10 minutes)

About coastal observations | Map of coastal stations | Coastal observations for TAS | Marine services | Other Formats
Station Details ID: 091292 Name: SMITHTON AERODROME Lat: -40.83 Lon: 145.08 Height: 7.5 m
Data from the previous 72 hours. | See also: Recent months at Smithton
Date/Time
EST
Wind Sea
Height
m
Swell Vis
km
Cloud Weather Temp
°C
Press
MSL
hPa
Rain since
9am
mm
Dir  Spd
kts
Gust
kts
Height
m
Period
s
Dir
05/02:00pm ENE 19 29 - - - - - - - 14.2 1025.8 0.0
05/01:50pm E 19 30 - - - - - - - 14.0 1025.9 0.0
05/01:30pm ENE 19 27 - - - - - - - 14.2 1026.1 0.0
05/01:09pm ENE 19 30 - - - - - - - 14.5 1026.5 0.0
05/01:00pm ENE 18 26 - - - - - - - 14.4 1026.6 0.0
05/12:33pm ENE 18 28 - - - - - - - 14.4 1027.0 0.0
05/12:30pm ENE 19 28 - - - - - - - 14.2 1027.0 0.0
05/12:00pm ENE 17 24 - - - - - - - 14.2 1027.5 0.0
05/11:30am ENE 18 25 - - - - - - - 14.1 1028.2 0.0
05/11:00am NE 17 24 - - - - - - - 14.8 1028.8 0.0
05/10:47am ENE 15 25 - - - - - - - 14.7 1029.1 0.0
05/10:30am ENE 17 24 - - - - - - - 13.9 1029.2 0.0
05/10:00am ENE 16 23 - - - - - - - 13.5 1029.5 0.0
05/09:30am ENE 15 21 - - - - - - - 12.9 1029.4 0.0
05/09:00am ENE 17 27 - - - - - - - 12.9 1029.6 0.0
05/08:56am ENE 16 27 - - - - - - - 12.8 1029.5 0.0
05/08:30am ENE 15 22 - - - - - - - 12.5 1029.6 0.0
05/08:00am ENE 19 24 - - - - - - - 12.4 1029.5 0.0
05/07:30am ENE 18 24 - - - - - - - 12.2 1029.6 0.0
05/07:00am ENE 17 25 - - - - - - - 12.3 1029.6 0.0
05/06:30am ENE 17 24 - - - - - - - 12.3 1029.6 0.0
05/06:00am ENE 18 25 - - - - - - - 12.3 1029.6 0.0
05/05:30am ENE 17 25 - - - - - - - 12.3 1029.7 0.0
05/05:00am ENE 15 21 - - - - - - - 12.3 1029.9 0.0
05/04:30am ENE 18 27 - - - - - - - 12.1 1029.7 0.0
05/04:00am ENE 18 26 - - - - - - - 12.0 1029.8 0.0
05/03:30am ENE 18 24 - - - - - - - 11.9 1030.2 0.0
05/03:12am ENE 16 26 - - - - - - - 11.9 1030.3 0.0
05/03:00am ENE 17 25 - - - - - - - 11.9 1030.2 0.0
05/02:50am ENE 19 29 - - - - - - - 11.8 1030.2 0.0
05/02:30am ENE 17 23 - - - - - - - 11.5 1030.2 0.0
05/02:00am ENE 18 25 - - - - - - - 11.6 1030.5 0.0
05/01:30am E 17 24 - - - - - - - 11.6 1030.8 0.0
05/01:00am E 17 24 - - - - - - - 11.9 1031.1 0.0
05/12:30am ENE 15 24 - - - - - - - 12.3 1031.3 0.0
05/12:14am ENE 17 27 - - - - - - - 12.8 1031.3 0.0
05/12:00am ENE 17 25 - - - - - - - 12.8 1031.4 0.0
 
Date/Time
EST
Wind Sea
Height
m
Swell Vis
km
Cloud Weather Temp
°C
Press
MSL
hPa
Rain since
9am
mm
Dir  Spd
kts
Gust
kts
Height
m
Period
s
Dir
04/11:30pm ENE 18 27 - - - - - - - 13.1 1031.6 0.0
04/11:25pm ENE 17 27 - - - - - - - 13.1 1031.6 0.0
04/11:00pm ENE 17 25 - - - - - - - 13.2 1031.6 0.0
04/10:30pm ENE 17 22 - - - - - - - 13.0 1031.9 0.0
04/10:17pm ENE 16 26 - - - - - - - 13.0 1032.0 0.0
04/10:00pm ENE 17 23 - - - - - - - 13.0 1032.2 0.0
04/09:30pm ENE 17 28 - - - - - - - 13.0 1032.3 0.0
04/09:28pm ENE 17 28 - - - - - - - 13.0 1032.3 0.0
04/09:00pm ENE 15 22 - - - - - - - 12.8 1032.1 0.0
04/08:30pm ENE 16 20 - - - - - - - 12.7 1032.1 0.0
04/08:00pm ENE 17 24 - - - - - - - 12.6 1032.1 0.0
04/07:30pm ENE 16 23 - - - - - - - 12.3 1032.0 0.0
04/07:00pm ENE 15 21 - - - - - - - 12.0 1032.2 0.0
04/06:30pm ENE 15 20 - - - - - - - 12.0 1032.1 0.0
04/06:00pm ENE 15 23 - - - - - - - 11.9 1032.1 0.0
04/05:30pm ENE 15 19 - - - - - - - 11.9 1032.1 0.0
04/05:00pm ENE 15 21 - - - - - - - 11.9 1031.9 0.0
04/04:30pm ENE 14 20 - - - - - - - 11.9 1031.9 0.0
04/04:00pm E 17 23 - - - - - - - 12.1 1031.9 0.0
04/03:55pm E 18 28 - - - - - - - 12.2 1031.9 0.0
04/03:30pm ENE 19 27 - - - - - - - 12.7 1031.8 0.0
04/03:00pm E 17 25 - - - - - - - 12.8 1031.9 0.0
04/02:30pm ENE 17 24 - - - - - - - 12.9 1032.2 0.0
04/02:00pm E 16 22 - - - - - - - 13.0 1032.6 0.0
04/01:30pm ENE 16 22 - - - - - - - 13.4 1032.9 0.0
04/01:00pm E 15 22 - - - - - - - 12.9 1033.2 0.0
04/12:30pm ENE 17 24 - - - - - - - 12.8 1033.4 0.0
04/12:00pm E 16 23 - - - - - - - 12.9 1033.7 0.0
04/11:30am E 15 22 - - - - - - - 12.9 1034.0 0.0
04/11:00am E 18 24 - - - - - - - 12.6 1034.3 0.0
04/10:30am E 13 18 - - - - - - - 12.8 1034.5 0.0
04/10:00am E 13 18 - - - - - - - 11.5 1034.5 0.0
04/09:30am E 10 14 - - - - - - - 10.6 1034.4 0.0
04/09:00am E 13 17 - - - - - - - 10.1 1034.2 0.2
04/08:30am E 11 16 - - - - - - - 9.7 1034.1 0.2
04/08:00am E 13 17 - - - - - - - 9.6 1034.0 0.2
04/07:30am E 11 15 - - - - - - - 9.5 1033.8 0.2
04/07:00am E 11 16 - - - - - - - 9.6 1033.6 0.2
04/06:30am E 10 13 - - - - - - - 9.1 1033.5 0.2
04/06:00am E 9 12 - - - - - - - 8.8 1033.3 0.2
04/05:30am ESE 8 11 - - - - - - - 7.9 1033.1 0.2
04/05:00am E 9 11 - - - - - - - 7.5 1033.0 0.2
04/04:30am E 8 11 - - - - - - - 7.0 1032.8 0.2
04/04:00am E 8 11 - - - - - - - 6.4 1032.7 0.2
04/03:30am ESE 7 9 - - - - - - - 5.8 1032.7 0.2
04/03:00am SE 5 6 - - - - - - - 3.3 1032.5 0.2
04/02:30am SE 5 6 - - - - - - - 2.2 1032.3 0.2
04/02:00am ESE 5 7 - - - - - - - 2.2 1032.1 0.2
04/01:30am S 4 5 - - - - - - - 1.1 1031.9 0.2
04/01:00am S 4 5 - - - - - - - 2.0 1031.8 0.2
04/12:30am S 5 6 - - - - - - - 2.6 1031.7 0.2
04/12:00am SSE 4 5 - - - - - - Recent precip. 2.4 1031.7 0.2
 
Date/Time
EST
Wind Sea
Height
m
Swell Vis
km
Cloud Weather Temp
°C
Press
MSL
hPa
Rain since
9am
mm
Dir  Spd
kts
Gust
kts
Height
m
Period
s
Dir
03/11:30pm S 4 5 - - - - - - - 2.8 1031.4 0.0
03/11:00pm S 5 7 - - - - - - - 4.0 1031.4 0.0
03/10:30pm SSE 5 6 - - - - - - - 3.6 1031.2 0.0
03/10:00pm S 7 8 - - - - - - - 3.1 1030.9 0.0
03/09:30pm S 4 5 - - - - - - - 3.1 1030.6 0.0
03/09:00pm S 5 6 - - - - - - - 4.2 1030.4 0.0
03/08:30pm S 7 7 - - - - - - - 5.2 1030.2 0.0
03/08:00pm S 5 7 - - - - - - - 5.4 1030.0 0.0
03/07:30pm S 6 8 - - - - - - - 6.1 1029.7 0.0
03/07:00pm S 8 8 - - - - - - - 5.9 1029.2 0.0
03/06:30pm SSW 7 8 - - - - - - - 5.9 1028.6 0.0
03/06:00pm S 5 6 - - - - - - - 7.4 1028.4 0.0
03/05:30pm S 6 7 - - - - - - - 8.9 1028.1 0.0
03/05:00pm S 6 8 - - - - - - - 10.6 1027.8 0.0
03/04:30pm SSW 6 7 - - - - - - - 11.6 1027.5 0.0
03/04:00pm SSW 7 9 - - - - - - - 12.8 1027.1 0.0
03/03:30pm SW 9 11 - - - - - - - 13.3 1026.8 0.0
03/03:00pm SW 10 14 - - - - - - - 13.8 1026.4 0.0
03/02:30pm SSW 11 15 - - - - - - - 13.7 1026.1 0.0
03/02:00pm SW 13 16 - - - - - - - 14.1 1025.9 0.0
03/01:30pm SW 12 15 - - - - - - - 14.1 1025.8 0.0
03/01:00pm S 11 15 - - - - - - - 14.1 1025.7 0.0
03/12:30pm SSW 13 17 - - - - - - - 13.6 1025.8 0.0
03/12:00pm SSW 11 16 - - - - - - - 12.8 1026.0 0.0
03/11:30am SW 11 15 - - - - - - - 13.0 1026.1 0.0
03/11:00am SW 11 14 - - - - - - - 12.4 1026.1 0.0
03/10:30am SW 10 13 - - - - - - - 12.0 1026.0 0.0
03/10:00am SSW 5 8 - - - - - - - 11.4 1025.8 0.0
03/09:30am SSW 4 5 - - - - - - - 9.7 1025.6 0.0
03/09:00am SSW 4 5 - - - - - - - 8.6 1025.6 0.2
03/08:30am SSW 5 5 - - - - - - - 8.1 1025.4 0.2
03/08:00am SSW 5 5 - - - - - - - 7.9 1024.9 0.2
03/07:30am S 6 7 - - - - - - - 7.7 1024.5 0.2
03/07:00am SSW 5 6 - - - - - - - 7.5 1023.9 0.2
03/06:30am SSW 4 5 - - - - - - - 7.6 1023.5 0.2
03/06:00am S 5 6 - - - - - - - 7.5 1023.4 0.2
03/05:30am SSW 4 4 - - - - - - - 7.2 1023.3 0.2
03/05:00am SSW 3 5 - - - - - - - 6.9 1023.2 0.2
03/04:30am CALM 0 0 - - - - - - - 7.7 1023.1 0.2
03/04:00am S 2 4 - - - - - - - 8.4 1022.9 0.2
03/03:30am S 4 5 - - - - - - - 8.8 1023.1 0.2
03/03:00am SSW 5 6 - - - - - - - 9.0 1022.9 0.2
03/02:30am N 3 4 - - - - - - - 8.8 1022.7 0.2
03/02:00am N 4 6 - - - - - - - 8.8 1023.0 0.2
03/01:30am SSW 6 7 - - - - - - - 8.9 1023.2 0.2
03/01:00am S 6 7 - - - - - - - 8.6 1023.3 0.0
03/12:30am S 5 5 - - - - - - - 8.4 1023.1 0.0
03/12:00am S 5 6 - - - - - - - 8.2 1023.2 0.0
 
Date/Time
EST
Wind Sea
Height
m
Swell Vis
km
Cloud Weather Temp
°C
Press
MSL
hPa
Rain since
9am
mm
Dir  Spd
kts
Gust
kts
Height
m
Period
s
Dir
02/11:30pm S 5 6 - - - - - - - 7.9 1023.2 0.0
02/11:00pm S 6 7 - - - - - - - 8.1 1023.0 0.0
02/10:30pm S 4 5 - - - - - - - 8.0 1023.1 0.0
02/10:00pm WNW 4 7 - - - - - - - 8.0 1023.1 0.0
02/09:30pm CALM 0 0 - - - - - - - 8.4 1023.1 0.0
02/09:00pm CALM 0 0 - - - - - - - 8.5 1023.1 0.0
02/08:30pm CALM 0 0 - - - - - - - 8.3 1022.9 0.0
02/08:00pm CALM 0 0 - - - - - - - 8.1 1023.0 0.0
02/07:30pm CALM 0 0 - - - - - - - 7.6 1022.8 0.0
02/07:00pm S 2 3 - - - - - - - 8.0 1022.8 0.0
02/06:30pm CALM 0 0 - - - - - - - 8.8 1022.6 0.0
02/06:00pm CALM 0 0 - - - - - - - 9.1 1022.3 0.0
02/05:30pm CALM 0 0 - - - - - - - 9.8 1022.4 0.0
02/05:00pm CALM 0 0 - - - - - - - 10.2 1021.9 0.0
02/04:30pm CALM 0 0 - - - - - - - 10.8 1021.7 0.0
02/04:00pm S 4 6 - - - - - - - 11.3 1021.9 0.0
02/03:30pm NNW 5 6 - - - - - - - 11.8 1021.9 0.0
02/03:00pm CALM 0 3 - - - - - - - 12.1 1021.9 0.0
02/02:30pm NW 3 5 - - - - - - - 12.3 1022.0 0.0

Other formats

Comma delimited format used in spreadsheet applications
http://www.bom.gov.au/fwo/IDT60701/IDT60701.94953.axf

JavaScript Object Notation format (JSON) in row-major order
http://www.bom.gov.au/fwo/IDT60701/IDT60701.94953.json

Data quality

Most of these data are generated automatically and are frequently updated. Quality checks on data are not normally performed. It is possible for incorrect values to appear. Refer to information at About Latest Weather Observations and please check the disclaimer before using these data.